sensor_id;sensor_type;location;lat;lon;timestamp;P1;durP1;ratioP1;P2;durP2;ratioP2
27161;SDS011;54464;50.558;9.704;2023-01-10T00:00:51;6.57;;;3.90;;
27161;SDS011;54464;50.558;9.704;2023-01-10T00:03:17;6.47;;;4.07;;
27161;SDS011;54464;50.558;9.704;2023-01-10T00:05:43;7.50;;;4.20;;
27161;SDS011;54464;50.558;9.704;2023-01-10T00:08:10;6.77;;;4.70;;
27161;SDS011;54464;50.558;9.704;2023-01-10T00:10:39;5.87;;;4.33;;
27161;SDS011;54464;50.558;9.704;2023-01-10T00:13:05;6.73;;;4.37;;
27161;SDS011;54464;50.558;9.704;2023-01-10T00:15:50;4.10;;;3.33;;
27161;SDS011;54464;50.558;9.704;2023-01-10T00:18:16;5.27;;;3.03;;
27161;SDS011;54464;50.558;9.704;2023-01-10T00:20:43;5.60;;;3.17;;
27161;SDS011;54464;50.558;9.704;2023-01-10T00:23:10;4.37;;;2.73;;
27161;SDS011;54464;50.558;9.704;2023-01-10T00:25:36;5.90;;;3.30;;
27161;SDS011;54464;50.558;9.704;2023-01-10T00:28:02;5.67;;;3.37;;
27161;SDS011;54464;50.558;9.704;2023-01-10T00:30:36;4.87;;;3.20;;
27161;SDS011;54464;50.558;9.704;2023-01-10T00:33:03;4.93;;;3.23;;
27161;SDS011;54464;50.558;9.704;2023-01-10T00:35:29;4.40;;;3.43;;
27161;SDS011;54464;50.558;9.704;2023-01-10T00:37:55;5.43;;;3.93;;
27161;SDS011;54464;50.558;9.704;2023-01-10T00:40:30;6.07;;;3.90;;
27161;SDS011;54464;50.558;9.704;2023-01-10T00:42:56;6.17;;;3.90;;
27161;SDS011;54464;50.558;9.704;2023-01-10T00:45:43;7.13;;;4.40;;
27161;SDS011;54464;50.558;9.704;2023-01-10T00:48:09;6.83;;;4.43;;
27161;SDS011;54464;50.558;9.704;2023-01-10T00:50:36;5.83;;;4.30;;
27161;SDS011;54464;50.558;9.704;2023-01-10T00:53:01;5.20;;;3.40;;
27161;SDS011;54464;50.558;9.704;2023-01-10T00:55:27;6.00;;;4.27;;
27161;SDS011;54464;50.558;9.704;2023-01-10T00:57:53;7.17;;;4.97;;
27161;SDS011;54464;50.558;9.704;2023-01-10T01:00:18;6.73;;;5.47;;
27161;SDS011;54464;50.558;9.704;2023-01-10T01:02:44;8.07;;;5.10;;
27161;SDS011;54464;50.558;9.704;2023-01-10T01:05:10;6.33;;;5.00;;
27161;SDS011;54464;50.558;9.704;2023-01-10T01:07:35;6.53;;;4.70;;
27161;SDS011;54464;50.558;9.704;2023-01-10T01:10:01;7.23;;;4.37;;
27161;SDS011;54464;50.558;9.704;2023-01-10T01:12:45;8.00;;;4.57;;
27161;SDS011;54464;50.558;9.704;2023-01-10T01:15:11;6.40;;;4.80;;
27161;SDS011;54464;50.558;9.704;2023-01-10T01:17:37;6.03;;;3.47;;
27161;SDS011;54464;50.558;9.704;2023-01-10T01:20:03;6.20;;;3.70;;
27161;SDS011;54464;50.558;9.704;2023-01-10T01:22:29;6.47;;;3.57;;
27161;SDS011;54464;50.558;9.704;2023-01-10T01:24:55;4.67;;;2.87;;
27161;SDS011;54464;50.558;9.704;2023-01-10T01:27:21;5.40;;;3.27;;
27161;SDS011;54464;50.558;9.704;2023-01-10T01:29:46;7.30;;;3.97;;
27161;SDS011;54464;50.558;9.704;2023-01-10T01:32:12;5.50;;;3.50;;
27161;SDS011;54464;50.558;9.704;2023-01-10T01:34:37;5.80;;;3.67;;
27161;SDS011;54464;50.558;9.704;2023-01-10T01:37:03;5.37;;;3.87;;
27161;SDS011;54464;50.558;9.704;2023-01-10T01:39:29;5.97;;;4.00;;
27161;SDS011;54464;50.558;9.704;2023-01-10T01:41:54;3.60;;;2.23;;
27161;SDS011;54464;50.558;9.704;2023-01-10T01:44:23;5.30;;;4.20;;
27161;SDS011;54464;50.558;9.704;2023-01-10T01:47:06;4.73;;;3.53;;
27161;SDS011;54464;50.558;9.704;2023-01-10T01:49:40;4.77;;;4.17;;
27161;SDS011;54464;50.558;9.704;2023-01-10T01:52:10;3.73;;;2.47;;
27161;SDS011;54464;50.558;9.704;2023-01-10T01:54:42;5.47;;;3.27;;
27161;SDS011;54464;50.558;9.704;2023-01-10T01:57:12;6.40;;;3.70;;
27161;SDS011;54464;50.558;9.704;2023-01-10T01:59:41;4.93;;;3.27;;
27161;SDS011;54464;50.558;9.704;2023-01-10T02:02:17;2.83;;;2.20;;
27161;SDS011;54464;50.558;9.704;2023-01-10T02:07:24;4.23;;;3.03;;
27161;SDS011;54464;50.558;9.704;2023-01-10T02:09:57;4.73;;;3.80;;
27161;SDS011;54464;50.558;9.704;2023-01-10T02:12:43;6.93;;;4.03;;
27161;SDS011;54464;50.558;9.704;2023-01-10T02:15:10;2.83;;;1.83;;
27161;SDS011;54464;50.558;9.704;2023-01-10T02:17:37;5.27;;;3.87;;
27161;SDS011;54464;50.558;9.704;2023-01-10T02:20:06;5.33;;;4.53;;
27161;SDS011;54464;50.558;9.704;2023-01-10T02:34:16;5.63;;;3.33;;
27161;SDS011;54464;50.558;9.704;2023-01-10T02:40:07;4.10;;;3.70;;
27161;SDS011;54464;50.558;9.704;2023-01-10T02:45:29;5.77;;;4.10;;
27161;SDS011;54464;50.558;9.704;2023-01-10T02:48:08;5.20;;;3.83;;
27161;SDS011;54464;50.558;9.704;2023-01-10T02:53:10;4.30;;;3.57;;
27161;SDS011;54464;50.558;9.704;2023-01-10T02:58:39;6.23;;;4.03;;
27161;SDS011;54464;50.558;9.704;2023-01-10T03:04:11;5.57;;;3.50;;
27161;SDS011;54464;50.558;9.704;2023-01-10T03:06:43;6.10;;;3.63;;
27161;SDS011;54464;50.558;9.704;2023-01-10T03:09:24;4.60;;;3.90;;
27161;SDS011;54464;50.558;9.704;2023-01-10T03:12:00;5.50;;;3.70;;
27161;SDS011;54464;50.558;9.704;2023-01-10T03:14:35;5.03;;;4.00;;
27161;SDS011;54464;50.558;9.704;2023-01-10T03:17:04;7.93;;;4.17;;
27161;SDS011;54464;50.558;9.704;2023-01-10T03:19:40;5.73;;;4.20;;
27161;SDS011;54464;50.558;9.704;2023-01-10T03:22:10;13.90;;;8.13;;
27161;SDS011;54464;50.558;9.704;2023-01-10T03:24:38;7.73;;;5.03;;
27161;SDS011;54464;50.558;9.704;2023-01-10T03:32:57;6.37;;;4.40;;
27161;SDS011;54464;50.558;9.704;2023-01-10T03:35:49;5.70;;;3.93;;
27161;SDS011;54464;50.558;9.704;2023-01-10T03:38:25;4.60;;;3.50;;
27161;SDS011;54464;50.558;9.704;2023-01-10T03:41:06;4.17;;;3.70;;
27161;SDS011;54464;50.558;9.704;2023-01-10T03:46:40;6.30;;;3.77;;
27161;SDS011;54464;50.558;9.704;2023-01-10T03:49:27;6.20;;;4.60;;
27161;SDS011;54464;50.558;9.704;2023-01-10T03:51:55;5.43;;;3.80;;
27161;SDS011;54464;50.558;9.704;2023-01-10T03:54:22;4.47;;;4.07;;
27161;SDS011;54464;50.558;9.704;2023-01-10T03:56:49;7.07;;;3.93;;
27161;SDS011;54464;50.558;9.704;2023-01-10T03:59:20;6.50;;;4.83;;
27161;SDS011;54464;50.558;9.704;2023-01-10T04:01:55;5.43;;;3.90;;
27161;SDS011;54464;50.558;9.704;2023-01-10T04:04:21;5.37;;;4.70;;
27161;SDS011;54464;50.558;9.704;2023-01-10T04:06:47;7.37;;;4.77;;
27161;SDS011;54464;50.558;9.704;2023-01-10T04:09:12;8.03;;;5.03;;
27161;SDS011;54464;50.558;9.704;2023-01-10T04:11:38;5.00;;;4.10;;
27161;SDS011;54464;50.558;9.704;2023-01-10T04:14:04;8.03;;;5.20;;
27161;SDS011;54464;50.558;9.704;2023-01-10T04:16:30;6.50;;;5.20;;
27161;SDS011;54464;50.558;9.704;2023-01-10T04:18:55;7.07;;;4.73;;
27161;SDS011;54464;50.558;9.704;2023-01-10T04:21:21;5.93;;;4.80;;
27161;SDS011;54464;50.558;9.704;2023-01-10T04:23:47;6.27;;;5.67;;
27161;SDS011;54464;50.558;9.704;2023-01-10T04:26:12;6.37;;;4.23;;
27161;SDS011;54464;50.558;9.704;2023-01-10T04:28:38;7.03;;;4.90;;
27161;SDS011;54464;50.558;9.704;2023-01-10T04:31:04;5.83;;;5.23;;
27161;SDS011;54464;50.558;9.704;2023-01-10T04:33:30;5.67;;;4.93;;
27161;SDS011;54464;50.558;9.704;2023-01-10T04:35:56;6.00;;;4.90;;
27161;SDS011;54464;50.558;9.704;2023-01-10T04:38:22;6.43;;;3.97;;
27161;SDS011;54464;50.558;9.704;2023-01-10T04:40:54;5.47;;;4.10;;
27161;SDS011;54464;50.558;9.704;2023-01-10T04:43:21;3.90;;;2.93;;
27161;SDS011;54464;50.558;9.704;2023-01-10T04:45:47;4.77;;;2.37;;
27161;SDS011;54464;50.558;9.704;2023-01-10T04:48:13;7.70;;;3.80;;
27161;SDS011;54464;50.558;9.704;2023-01-10T04:50:39;4.60;;;2.97;;
27161;SDS011;54464;50.558;9.704;2023-01-10T04:53:04;5.70;;;3.10;;
27161;SDS011;54464;50.558;9.704;2023-01-10T04:55:31;4.90;;;3.60;;
27161;SDS011;54464;50.558;9.704;2023-01-10T04:57:57;4.53;;;3.03;;
27161;SDS011;54464;50.558;9.704;2023-01-10T05:00:23;3.07;;;2.50;;
27161;SDS011;54464;50.558;9.704;2023-01-10T05:02:53;8.30;;;4.70;;
27161;SDS011;54464;50.558;9.704;2023-01-10T05:05:19;9.13;;;4.83;;
27161;SDS011;54464;50.558;9.704;2023-01-10T05:07:45;7.27;;;4.63;;
27161;SDS011;54464;50.558;9.704;2023-01-10T05:10:11;6.70;;;4.30;;
27161;SDS011;54464;50.558;9.704;2023-01-10T05:12:37;6.53;;;4.13;;
27161;SDS011;54464;50.558;9.704;2023-01-10T05:15:03;6.73;;;5.10;;
27161;SDS011;54464;50.558;9.704;2023-01-10T05:17:29;7.00;;;4.50;;
27161;SDS011;54464;50.558;9.704;2023-01-10T05:19:55;5.83;;;3.50;;
27161;SDS011;54464;50.558;9.704;2023-01-10T05:22:20;5.03;;;3.90;;
27161;SDS011;54464;50.558;9.704;2023-01-10T05:24:46;7.37;;;5.07;;
27161;SDS011;54464;50.558;9.704;2023-01-10T05:27:12;5.20;;;4.60;;
27161;SDS011;54464;50.558;9.704;2023-01-10T05:29:37;6.80;;;4.53;;
27161;SDS011;54464;50.558;9.704;2023-01-10T05:32:03;7.63;;;4.60;;
27161;SDS011;54464;50.558;9.704;2023-01-10T05:34:29;5.37;;;3.67;;
27161;SDS011;54464;50.558;9.704;2023-01-10T05:36:54;5.57;;;3.90;;
27161;SDS011;54464;50.558;9.704;2023-01-10T05:39:20;5.37;;;3.10;;
27161;SDS011;54464;50.558;9.704;2023-01-10T05:41:46;8.67;;;3.73;;
27161;SDS011;54464;50.558;9.704;2023-01-10T05:44:11;4.63;;;4.10;;
27161;SDS011;54464;50.558;9.704;2023-01-10T05:46:37;7.97;;;4.30;;
27161;SDS011;54464;50.558;9.704;2023-01-10T05:49:02;5.67;;;3.67;;
27161;SDS011;54464;50.558;9.704;2023-01-10T05:51:28;5.57;;;4.00;;
27161;SDS011;54464;50.558;9.704;2023-01-10T05:53:54;4.37;;;3.20;;
27161;SDS011;54464;50.558;9.704;2023-01-10T05:56:21;6.53;;;3.73;;
27161;SDS011;54464;50.558;9.704;2023-01-10T05:58:47;10.10;;;5.77;;
27161;SDS011;54464;50.558;9.704;2023-01-10T06:01:13;9.03;;;5.40;;
27161;SDS011;54464;50.558;9.704;2023-01-10T06:03:38;8.97;;;4.77;;
27161;SDS011;54464;50.558;9.704;2023-01-10T06:06:04;8.03;;;5.40;;
27161;SDS011;54464;50.558;9.704;2023-01-10T06:08:30;7.90;;;5.50;;
27161;SDS011;54464;50.558;9.704;2023-01-10T06:10:56;7.63;;;5.57;;
27161;SDS011;54464;50.558;9.704;2023-01-10T06:13:22;7.67;;;4.87;;
27161;SDS011;54464;50.558;9.704;2023-01-10T06:15:48;8.17;;;4.43;;
27161;SDS011;54464;50.558;9.704;2023-01-10T06:18:14;8.03;;;4.70;;
27161;SDS011;54464;50.558;9.704;2023-01-10T06:20:41;5.83;;;3.57;;
27161;SDS011;54464;50.558;9.704;2023-01-10T06:23:07;5.10;;;3.77;;
27161;SDS011;54464;50.558;9.704;2023-01-10T06:25:33;7.80;;;4.33;;
27161;SDS011;54464;50.558;9.704;2023-01-10T06:28:04;7.77;;;4.40;;
27161;SDS011;54464;50.558;9.704;2023-01-10T06:30:30;10.47;;;5.10;;
27161;SDS011;54464;50.558;9.704;2023-01-10T06:32:59;8.33;;;4.73;;
27161;SDS011;54464;50.558;9.704;2023-01-10T06:35:26;9.67;;;5.00;;
27161;SDS011;54464;50.558;9.704;2023-01-10T06:37:52;7.77;;;4.70;;
27161;SDS011;54464;50.558;9.704;2023-01-10T06:40:18;11.03;;;5.87;;
27161;SDS011;54464;50.558;9.704;2023-01-10T06:42:43;9.90;;;5.93;;
27161;SDS011;54464;50.558;9.704;2023-01-10T06:45:09;8.77;;;5.27;;
27161;SDS011;54464;50.558;9.704;2023-01-10T06:47:35;9.03;;;5.20;;
27161;SDS011;54464;50.558;9.704;2023-01-10T06:50:02;12.27;;;6.50;;
27161;SDS011;54464;50.558;9.704;2023-01-10T06:52:28;12.07;;;6.63;;
27161;SDS011;54464;50.558;9.704;2023-01-10T06:54:54;13.73;;;7.77;;
27161;SDS011;54464;50.558;9.704;2023-01-10T06:57:20;10.10;;;6.40;;
27161;SDS011;54464;50.558;9.704;2023-01-10T06:59:45;10.03;;;5.10;;
27161;SDS011;54464;50.558;9.704;2023-01-10T07:02:11;8.97;;;5.50;;
27161;SDS011;54464;50.558;9.704;2023-01-10T07:04:37;10.50;;;5.33;;
27161;SDS011;54464;50.558;9.704;2023-01-10T07:07:03;11.37;;;5.93;;
27161;SDS011;54464;50.558;9.704;2023-01-10T07:09:28;10.20;;;5.90;;
27161;SDS011;54464;50.558;9.704;2023-01-10T07:11:54;12.10;;;5.30;;
27161;SDS011;54464;50.558;9.704;2023-01-10T07:14:19;6.53;;;4.40;;
27161;SDS011;54464;50.558;9.704;2023-01-10T07:16:45;6.93;;;3.77;;
27161;SDS011;54464;50.558;9.704;2023-01-10T07:19:11;7.67;;;3.93;;
27161;SDS011;54464;50.558;9.704;2023-01-10T07:21:41;9.87;;;4.30;;
27161;SDS011;54464;50.558;9.704;2023-01-10T07:24:07;8.13;;;3.70;;
27161;SDS011;54464;50.558;9.704;2023-01-10T07:26:33;10.53;;;5.57;;
27161;SDS011;54464;50.558;9.704;2023-01-10T07:29:00;10.97;;;6.00;;
27161;SDS011;54464;50.558;9.704;2023-01-10T07:31:25;10.27;;;6.63;;
27161;SDS011;54464;50.558;9.704;2023-01-10T07:33:51;9.77;;;5.60;;
27161;SDS011;54464;50.558;9.704;2023-01-10T07:36:17;11.13;;;6.17;;
27161;SDS011;54464;50.558;9.704;2023-01-10T07:38:42;8.20;;;4.93;;
27161;SDS011;54464;50.558;9.704;2023-01-10T07:41:08;15.63;;;7.10;;
27161;SDS011;54464;50.558;9.704;2023-01-10T07:43:34;11.93;;;5.93;;
27161;SDS011;54464;50.558;9.704;2023-01-10T07:46:01;10.77;;;4.90;;
27161;SDS011;54464;50.558;9.704;2023-01-10T07:48:28;13.40;;;4.03;;
27161;SDS011;54464;50.558;9.704;2023-01-10T07:50:58;11.03;;;4.30;;
27161;SDS011;54464;50.558;9.704;2023-01-10T07:53:31;7.60;;;3.40;;
27161;SDS011;54464;50.558;9.704;2023-01-10T07:55:57;5.93;;;3.87;;
27161;SDS011;54464;50.558;9.704;2023-01-10T07:58:27;8.17;;;3.50;;
27161;SDS011;54464;50.558;9.704;2023-01-10T08:00:57;6.00;;;4.00;;
27161;SDS011;54464;50.558;9.704;2023-01-10T08:03:23;7.30;;;3.10;;
27161;SDS011;54464;50.558;9.704;2023-01-10T08:05:49;5.77;;;3.73;;
27161;SDS011;54464;50.558;9.704;2023-01-10T08:08:21;7.80;;;3.90;;
27161;SDS011;54464;50.558;9.704;2023-01-10T08:10:46;6.77;;;3.70;;
27161;SDS011;54464;50.558;9.704;2023-01-10T08:13:12;8.17;;;2.40;;
27161;SDS011;54464;50.558;9.704;2023-01-10T08:15:37;7.50;;;2.60;;
27161;SDS011;54464;50.558;9.704;2023-01-10T08:18:03;7.20;;;3.70;;
27161;SDS011;54464;50.558;9.704;2023-01-10T08:20:29;6.73;;;3.17;;
27161;SDS011;54464;50.558;9.704;2023-01-10T08:22:57;6.47;;;2.80;;
27161;SDS011;54464;50.558;9.704;2023-01-10T08:25:24;7.33;;;3.80;;
27161;SDS011;54464;50.558;9.704;2023-01-10T08:27:50;6.23;;;3.67;;
27161;SDS011;54464;50.558;9.704;2023-01-10T08:30:16;6.03;;;3.50;;
27161;SDS011;54464;50.558;9.704;2023-01-10T08:32:42;8.37;;;3.47;;
27161;SDS011;54464;50.558;9.704;2023-01-10T08:35:08;4.67;;;2.60;;
27161;SDS011;54464;50.558;9.704;2023-01-10T08:37:34;5.57;;;3.20;;
27161;SDS011;54464;50.558;9.704;2023-01-10T08:40:00;6.43;;;3.20;;
27161;SDS011;54464;50.558;9.704;2023-01-10T08:42:26;7.37;;;3.93;;
27161;SDS011;54464;50.558;9.704;2023-01-10T08:44:51;7.30;;;3.93;;
27161;SDS011;54464;50.558;9.704;2023-01-10T08:47:18;6.53;;;3.90;;
27161;SDS011;54464;50.558;9.704;2023-01-10T08:49:44;9.17;;;5.23;;
27161;SDS011;54464;50.558;9.704;2023-01-10T08:52:11;5.40;;;3.50;;
27161;SDS011;54464;50.558;9.704;2023-01-10T08:54:37;7.27;;;3.73;;
27161;SDS011;54464;50.558;9.704;2023-01-10T08:57:02;7.87;;;3.73;;
27161;SDS011;54464;50.558;9.704;2023-01-10T08:59:28;7.83;;;3.00;;
27161;SDS011;54464;50.558;9.704;2023-01-10T09:01:54;10.43;;;3.17;;
27161;SDS011;54464;50.558;9.704;2023-01-10T09:04:22;7.77;;;3.40;;
27161;SDS011;54464;50.558;9.704;2023-01-10T09:06:48;8.23;;;3.40;;
27161;SDS011;54464;50.558;9.704;2023-01-10T09:09:14;2.87;;;2.00;;
27161;SDS011;54464;50.558;9.704;2023-01-10T09:11:39;5.10;;;3.10;;
27161;SDS011;54464;50.558;9.704;2023-01-10T09:14:05;6.70;;;3.27;;
27161;SDS011;54464;50.558;9.704;2023-01-10T09:16:31;7.20;;;3.47;;
27161;SDS011;54464;50.558;9.704;2023-01-10T09:18:57;8.07;;;3.60;;
27161;SDS011;54464;50.558;9.704;2023-01-10T09:21:23;8.90;;;3.20;;
27161;SDS011;54464;50.558;9.704;2023-01-10T09:23:48;8.30;;;2.63;;
27161;SDS011;54464;50.558;9.704;2023-01-10T09:26:14;6.37;;;3.17;;
27161;SDS011;54464;50.558;9.704;2023-01-10T09:28:40;4.40;;;3.20;;
27161;SDS011;54464;50.558;9.704;2023-01-10T09:31:06;6.43;;;3.60;;
27161;SDS011;54464;50.558;9.704;2023-01-10T09:33:33;10.10;;;4.07;;
27161;SDS011;54464;50.558;9.704;2023-01-10T09:35:59;8.37;;;3.70;;
27161;SDS011;54464;50.558;9.704;2023-01-10T09:38:25;5.83;;;2.90;;
27161;SDS011;54464;50.558;9.704;2023-01-10T09:40:59;9.17;;;3.63;;
27161;SDS011;54464;50.558;9.704;2023-01-10T09:51:50;11.20;;;3.93;;
27161;SDS011;54464;50.558;9.704;2023-01-10T09:54:30;8.57;;;3.40;;
27161;SDS011;54464;50.558;9.704;2023-01-10T09:57:00;6.30;;;2.70;;
27161;SDS011;54464;50.558;9.704;2023-01-10T09:59:31;8.97;;;3.30;;
27161;SDS011;54464;50.558;9.704;2023-01-10T10:07:24;6.53;;;3.43;;
27161;SDS011;54464;50.558;9.704;2023-01-10T10:09:50;10.03;;;2.73;;
27161;SDS011;54464;50.558;9.704;2023-01-10T10:15:08;7.83;;;3.90;;
27161;SDS011;54464;50.558;9.704;2023-01-10T10:17:42;7.87;;;3.40;;
27161;SDS011;54464;50.558;9.704;2023-01-10T10:20:38;9.83;;;3.97;;
27161;SDS011;54464;50.558;9.704;2023-01-10T10:33:56;10.53;;;3.40;;
27161;SDS011;54464;50.558;9.704;2023-01-10T10:36:45;9.93;;;3.40;;
27161;SDS011;54464;50.558;9.704;2023-01-10T10:39:16;11.03;;;3.07;;
27161;SDS011;54464;50.558;9.704;2023-01-10T10:41:47;6.37;;;3.27;;
27161;SDS011;54464;50.558;9.704;2023-01-10T10:44:29;8.07;;;2.47;;
27161;SDS011;54464;50.558;9.704;2023-01-10T10:47:16;6.30;;;1.97;;
27161;SDS011;54464;50.558;9.704;2023-01-10T10:52:25;5.63;;;2.27;;
27161;SDS011;54464;50.558;9.704;2023-01-10T10:54:55;7.93;;;3.03;;
27161;SDS011;54464;50.558;9.704;2023-01-10T10:57:23;8.47;;;2.57;;
27161;SDS011;54464;50.558;9.704;2023-01-10T10:59:52;7.37;;;2.23;;
27161;SDS011;54464;50.558;9.704;2023-01-10T11:02:20;2.30;;;1.27;;
27161;SDS011;54464;50.558;9.704;2023-01-10T11:04:52;5.03;;;1.83;;
27161;SDS011;54464;50.558;9.704;2023-01-10T11:07:21;8.50;;;2.57;;
27161;SDS011;54464;50.558;9.704;2023-01-10T11:09:48;7.70;;;2.93;;
27161;SDS011;54464;50.558;9.704;2023-01-10T11:12:24;9.13;;;2.80;;
27161;SDS011;54464;50.558;9.704;2023-01-10T11:14:54;12.30;;;3.00;;
27161;SDS011;54464;50.558;9.704;2023-01-10T11:17:24;9.30;;;2.70;;
27161;SDS011;54464;50.558;9.704;2023-01-10T11:19:55;6.73;;;3.20;;
27161;SDS011;54464;50.558;9.704;2023-01-10T11:22:24;5.13;;;2.87;;
27161;SDS011;54464;50.558;9.704;2023-01-10T11:24:54;10.37;;;3.47;;
27161;SDS011;54464;50.558;9.704;2023-01-10T11:27:24;5.87;;;2.23;;
27161;SDS011;54464;50.558;9.704;2023-01-10T11:29:52;7.43;;;2.63;;
27161;SDS011;54464;50.558;9.704;2023-01-10T11:32:23;7.67;;;2.70;;
27161;SDS011;54464;50.558;9.704;2023-01-10T11:35:00;9.83;;;3.20;;
27161;SDS011;54464;50.558;9.704;2023-01-10T11:37:29;2.87;;;1.80;;
27161;SDS011;54464;50.558;9.704;2023-01-10T11:42:44;6.17;;;2.90;;
27161;SDS011;54464;50.558;9.704;2023-01-10T11:47:44;4.00;;;2.40;;
27161;SDS011;54464;50.558;9.704;2023-01-10T11:50:33;6.37;;;2.13;;
27161;SDS011;54464;50.558;9.704;2023-01-10T11:53:01;6.47;;;1.57;;
27161;SDS011;54464;50.558;9.704;2023-01-10T11:55:30;5.97;;;3.10;;
27161;SDS011;54464;50.558;9.704;2023-01-10T11:57:59;7.47;;;2.20;;
27161;SDS011;54464;50.558;9.704;2023-01-10T12:00:40;7.43;;;2.93;;
27161;SDS011;54464;50.558;9.704;2023-01-10T12:05:51;7.50;;;1.83;;
27161;SDS011;54464;50.558;9.704;2023-01-10T12:08:36;10.03;;;3.10;;
27161;SDS011;54464;50.558;9.704;2023-01-10T12:11:04;6.37;;;2.13;;
27161;SDS011;54464;50.558;9.704;2023-01-10T12:13:44;5.57;;;1.23;;
27161;SDS011;54464;50.558;9.704;2023-01-10T12:16:19;3.63;;;1.93;;
27161;SDS011;54464;50.558;9.704;2023-01-10T12:18:47;12.10;;;3.00;;
27161;SDS011;54464;50.558;9.704;2023-01-10T12:21:15;9.33;;;2.17;;
27161;SDS011;54464;50.558;9.704;2023-01-10T12:23:48;8.20;;;3.03;;
27161;SDS011;54464;50.558;9.704;2023-01-10T12:26:16;8.40;;;2.17;;
27161;SDS011;54464;50.558;9.704;2023-01-10T12:28:45;7.77;;;2.77;;
27161;SDS011;54464;50.558;9.704;2023-01-10T12:31:15;13.10;;;3.20;;
27161;SDS011;54464;50.558;9.704;2023-01-10T12:33:53;6.60;;;2.17;;
27161;SDS011;54464;50.558;9.704;2023-01-10T12:36:40;5.20;;;2.30;;
27161;SDS011;54464;50.558;9.704;2023-01-10T12:39:23;6.80;;;2.20;;
27161;SDS011;54464;50.558;9.704;2023-01-10T12:44:56;4.93;;;2.13;;
27161;SDS011;54464;50.558;9.704;2023-01-10T12:47:28;6.67;;;2.23;;
27161;SDS011;54464;50.558;9.704;2023-01-10T12:50:13;12.73;;;3.07;;
27161;SDS011;54464;50.558;9.704;2023-01-10T12:55:51;9.53;;;3.20;;
27161;SDS011;54464;50.558;9.704;2023-01-10T12:58:20;10.63;;;3.80;;
27161;SDS011;54464;50.558;9.704;2023-01-10T13:00:58;12.73;;;3.23;;
27161;SDS011;54464;50.558;9.704;2023-01-10T13:03:28;5.43;;;2.07;;
27161;SDS011;54464;50.558;9.704;2023-01-10T13:05:56;10.23;;;3.60;;
27161;SDS011;54464;50.558;9.704;2023-01-10T13:08:25;12.30;;;3.00;;
27161;SDS011;54464;50.558;9.704;2023-01-10T13:10:57;6.67;;;2.60;;
27161;SDS011;54464;50.558;9.704;2023-01-10T13:13:34;7.60;;;3.53;;
27161;SDS011;54464;50.558;9.704;2023-01-10T13:16:19;12.63;;;3.03;;
27161;SDS011;54464;50.558;9.704;2023-01-10T13:19:01;12.40;;;2.77;;
27161;SDS011;54464;50.558;9.704;2023-01-10T13:21:33;7.97;;;1.93;;
27161;SDS011;54464;50.558;9.704;2023-01-10T13:24:00;9.63;;;2.53;;
27161;SDS011;54464;50.558;9.704;2023-01-10T13:27:14;8.57;;;3.37;;
27161;SDS011;54464;50.558;9.704;2023-01-10T13:29:19;6.63;;;2.70;;
27161;SDS011;54464;50.558;9.704;2023-01-10T13:32:01;9.43;;;3.00;;
27161;SDS011;54464;50.558;9.704;2023-01-10T13:34:45;10.60;;;2.63;;
27161;SDS011;54464;50.558;9.704;2023-01-10T13:37:13;10.63;;;2.70;;
27161;SDS011;54464;50.558;9.704;2023-01-10T13:39:52;10.67;;;3.00;;
27161;SDS011;54464;50.558;9.704;2023-01-10T13:42:30;10.17;;;2.90;;
27161;SDS011;54464;50.558;9.704;2023-01-10T13:47:57;10.53;;;2.70;;
27161;SDS011;54464;50.558;9.704;2023-01-10T14:04:05;8.40;;;2.93;;
27161;SDS011;54464;50.558;9.704;2023-01-10T14:06:13;10.33;;;3.20;;
27161;SDS011;54464;50.558;9.704;2023-01-10T14:11:51;8.70;;;2.80;;
27161;SDS011;54464;50.558;9.704;2023-01-10T14:14:18;10.43;;;3.00;;
27161;SDS011;54464;50.558;9.704;2023-01-10T14:16:49;6.17;;;2.63;;
27161;SDS011;54464;50.558;9.704;2023-01-10T14:21:54;8.13;;;3.00;;
27161;SDS011;54464;50.558;9.704;2023-01-10T14:26:49;9.70;;;2.77;;
27161;SDS011;54464;50.558;9.704;2023-01-10T14:29:18;7.70;;;2.47;;
27161;SDS011;54464;50.558;9.704;2023-01-10T14:31:45;13.07;;;2.77;;
27161;SDS011;54464;50.558;9.704;2023-01-10T14:34:32;8.80;;;2.30;;
27161;SDS011;54464;50.558;9.704;2023-01-10T14:39:53;10.77;;;2.60;;
27161;SDS011;54464;50.558;9.704;2023-01-10T14:42:20;11.77;;;3.07;;
27161;SDS011;54464;50.558;9.704;2023-01-10T14:44:53;6.23;;;2.10;;
27161;SDS011;54464;50.558;9.704;2023-01-10T14:49:55;10.87;;;2.80;;
27161;SDS011;54464;50.558;9.704;2023-01-10T14:52:40;9.83;;;2.50;;
27161;SDS011;54464;50.558;9.704;2023-01-10T14:55:13;9.43;;;2.63;;
27161;SDS011;54464;50.558;9.704;2023-01-10T15:00:30;10.80;;;2.87;;
27161;SDS011;54464;50.558;9.704;2023-01-10T15:02:58;8.63;;;2.93;;
27161;SDS011;54464;50.558;9.704;2023-01-10T15:05:28;9.40;;;2.83;;
27161;SDS011;54464;50.558;9.704;2023-01-10T15:08:13;14.07;;;2.77;;
27161;SDS011;54464;50.558;9.704;2023-01-10T15:10:40;8.17;;;2.30;;
27161;SDS011;54464;50.558;9.704;2023-01-10T15:13:49;8.70;;;3.00;;
27161;SDS011;54464;50.558;9.704;2023-01-10T15:16:20;11.57;;;3.17;;
27161;SDS011;54464;50.558;9.704;2023-01-10T15:18:47;13.07;;;3.17;;
27161;SDS011;54464;50.558;9.704;2023-01-10T15:21:14;10.97;;;2.60;;
27161;SDS011;54464;50.558;9.704;2023-01-10T15:23:43;9.00;;;3.20;;
27161;SDS011;54464;50.558;9.704;2023-01-10T15:26:11;4.07;;;3.03;;
27161;SDS011;54464;50.558;9.704;2023-01-10T15:28:43;11.23;;;4.20;;
27161;SDS011;54464;50.558;9.704;2023-01-10T15:31:28;10.90;;;3.23;;
27161;SDS011;54464;50.558;9.704;2023-01-10T15:33:54;11.17;;;3.70;;
27161;SDS011;54464;50.558;9.704;2023-01-10T15:36:20;10.03;;;3.30;;
27161;SDS011;54464;50.558;9.704;2023-01-10T15:38:50;9.77;;;2.90;;
27161;SDS011;54464;50.558;9.704;2023-01-10T15:41:17;10.80;;;3.07;;
27161;SDS011;54464;50.558;9.704;2023-01-10T15:43:45;11.30;;;2.80;;
27161;SDS011;54464;50.558;9.704;2023-01-10T15:46:21;9.70;;;2.50;;
27161;SDS011;54464;50.558;9.704;2023-01-10T15:48:55;6.67;;;2.20;;
27161;SDS011;54464;50.558;9.704;2023-01-10T15:51:33;5.40;;;2.83;;
27161;SDS011;54464;50.558;9.704;2023-01-10T15:54:02;9.90;;;3.60;;
27161;SDS011;54464;50.558;9.704;2023-01-10T15:56:41;11.07;;;3.40;;
27161;SDS011;54464;50.558;9.704;2023-01-10T15:59:26;10.27;;;3.83;;
27161;SDS011;54464;50.558;9.704;2023-01-10T16:04:46;8.93;;;2.70;;
27161;SDS011;54464;50.558;9.704;2023-01-10T16:07:18;12.03;;;3.03;;
27161;SDS011;54464;50.558;9.704;2023-01-10T16:10:34;8.70;;;2.40;;
27161;SDS011;54464;50.558;9.704;2023-01-10T16:12:50;9.37;;;2.57;;
27161;SDS011;54464;50.558;9.704;2023-01-10T16:15:36;9.97;;;2.70;;
27161;SDS011;54464;50.558;9.704;2023-01-10T16:18:04;9.10;;;2.67;;
27161;SDS011;54464;50.558;9.704;2023-01-10T16:22:59;10.97;;;2.80;;
27161;SDS011;54464;50.558;9.704;2023-01-10T16:25:33;9.20;;;3.03;;
27161;SDS011;54464;50.558;9.704;2023-01-10T16:28:02;8.30;;;3.00;;
27161;SDS011;54464;50.558;9.704;2023-01-10T16:30:30;6.53;;;2.43;;
27161;SDS011;54464;50.558;9.704;2023-01-10T16:32:58;10.73;;;2.83;;
27161;SDS011;54464;50.558;9.704;2023-01-10T16:35:26;6.10;;;1.80;;
27161;SDS011;54464;50.558;9.704;2023-01-10T16:37:53;13.00;;;3.50;;
27161;SDS011;54464;50.558;9.704;2023-01-10T16:40:22;10.13;;;3.03;;
27161;SDS011;54464;50.558;9.704;2023-01-10T16:42:51;10.93;;;2.60;;
27161;SDS011;54464;50.558;9.704;2023-01-10T16:45:36;10.00;;;2.93;;
27161;SDS011;54464;50.558;9.704;2023-01-10T16:48:02;13.60;;;3.00;;
27161;SDS011;54464;50.558;9.704;2023-01-10T16:50:28;9.57;;;2.27;;
27161;SDS011;54464;50.558;9.704;2023-01-10T16:52:53;9.60;;;2.77;;
27161;SDS011;54464;50.558;9.704;2023-01-10T16:55:19;10.87;;;2.40;;
27161;SDS011;54464;50.558;9.704;2023-01-10T16:57:49;12.03;;;2.90;;
27161;SDS011;54464;50.558;9.704;2023-01-10T17:00:16;11.77;;;2.10;;